sensor_id;sensor_type;location;lat;lon;timestamp;P1;durP1;ratioP1;P2;durP2;ratioP2
37355;SDS011;48747;50.250;18.848;2023-10-13T00:02:00;23.77;;;14.07;;
37355;SDS011;48747;50.250;18.848;2023-10-13T00:04:06;21.25;;;13.88;;
37355;SDS011;48747;50.250;18.848;2023-10-13T00:06:09;24.10;;;13.55;;
37355;SDS011;48747;50.250;18.848;2023-10-13T00:08:12;27.58;;;14.10;;
37355;SDS011;48747;50.250;18.848;2023-10-13T00:10:15;22.48;;;11.75;;
37355;SDS011;48747;50.250;18.848;2023-10-13T00:12:20;23.05;;;13.22;;
37355;SDS011;48747;50.250;18.848;2023-10-13T00:14:24;21.20;;;13.90;;
37355;SDS011;48747;50.250;18.848;2023-10-13T00:16:36;26.95;;;13.93;;
37355;SDS011;48747;50.250;18.848;2023-10-13T00:18:41;28.17;;;14.23;;
37355;SDS011;48747;50.250;18.848;2023-10-13T00:20:45;24.07;;;12.93;;
37355;SDS011;48747;50.250;18.848;2023-10-13T00:22:51;27.00;;;14.33;;
37355;SDS011;48747;50.250;18.848;2023-10-13T00:24:54;24.15;;;13.45;;
37355;SDS011;48747;50.250;18.848;2023-10-13T00:26:59;25.72;;;14.25;;
37355;SDS011;48747;50.250;18.848;2023-10-13T00:29:03;25.05;;;14.00;;
37355;SDS011;48747;50.250;18.848;2023-10-13T00:31:10;23.67;;;14.40;;
37355;SDS011;48747;50.250;18.848;2023-10-13T00:33:15;23.65;;;14.15;;
37355;SDS011;48747;50.250;18.848;2023-10-13T00:35:20;27.02;;;14.50;;
37355;SDS011;48747;50.250;18.848;2023-10-13T00:37:28;28.80;;;15.03;;
37355;SDS011;48747;50.250;18.848;2023-10-13T00:39:33;27.77;;;14.78;;
37355;SDS011;48747;50.250;18.848;2023-10-13T00:41:38;28.92;;;15.08;;
37355;SDS011;48747;50.250;18.848;2023-10-13T00:43:48;29.30;;;15.20;;
37355;SDS011;48747;50.250;18.848;2023-10-13T00:46:06;29.32;;;13.45;;
37355;SDS011;48747;50.250;18.848;2023-10-13T00:48:12;28.65;;;15.13;;
37355;SDS011;48747;50.250;18.848;2023-10-13T00:50:17;27.55;;;15.90;;
37355;SDS011;48747;50.250;18.848;2023-10-13T00:52:20;31.10;;;16.07;;
37355;SDS011;48747;50.250;18.848;2023-10-13T00:54:23;32.98;;;17.00;;
37355;SDS011;48747;50.250;18.848;2023-10-13T00:56:28;31.02;;;16.55;;
37355;SDS011;48747;50.250;18.848;2023-10-13T00:58:35;33.20;;;16.15;;
37355;SDS011;48747;50.250;18.848;2023-10-13T01:00:41;29.57;;;15.53;;
37355;SDS011;48747;50.250;18.848;2023-10-13T01:02:55;33.00;;;16.40;;
37355;SDS011;48747;50.250;18.848;2023-10-13T01:04:58;29.92;;;16.30;;
37355;SDS011;48747;50.250;18.848;2023-10-13T01:07:01;36.00;;;16.00;;
37355;SDS011;48747;50.250;18.848;2023-10-13T01:09:10;28.95;;;15.53;;
37355;SDS011;48747;50.250;18.848;2023-10-13T01:11:16;31.30;;;16.52;;
37355;SDS011;48747;50.250;18.848;2023-10-13T01:13:20;31.10;;;16.75;;
37355;SDS011;48747;50.250;18.848;2023-10-13T01:15:24;32.55;;;17.40;;
37355;SDS011;48747;50.250;18.848;2023-10-13T01:17:29;30.48;;;16.40;;
37355;SDS011;48747;50.250;18.848;2023-10-13T01:19:36;32.00;;;17.70;;
37355;SDS011;48747;50.250;18.848;2023-10-13T01:21:41;37.55;;;17.60;;
37355;SDS011;48747;50.250;18.848;2023-10-13T01:23:46;34.38;;;17.52;;
37355;SDS011;48747;50.250;18.848;2023-10-13T01:25:49;34.63;;;18.10;;
37355;SDS011;48747;50.250;18.848;2023-10-13T01:27:54;31.10;;;18.42;;
37355;SDS011;48747;50.250;18.848;2023-10-13T01:29:58;31.85;;;18.12;;
37355;SDS011;48747;50.250;18.848;2023-10-13T01:32:03;31.23;;;16.85;;
37355;SDS011;48747;50.250;18.848;2023-10-13T01:34:06;32.55;;;18.87;;
37355;SDS011;48747;50.250;18.848;2023-10-13T01:36:09;32.67;;;18.12;;
37355;SDS011;48747;50.250;18.848;2023-10-13T01:38:13;31.40;;;18.50;;
37355;SDS011;48747;50.250;18.848;2023-10-13T01:40:16;37.98;;;19.25;;
37355;SDS011;48747;50.250;18.848;2023-10-13T01:42:21;32.08;;;19.12;;
37355;SDS011;48747;50.250;18.848;2023-10-13T01:44:26;33.78;;;18.80;;
37355;SDS011;48747;50.250;18.848;2023-10-13T01:46:31;30.80;;;18.35;;
37355;SDS011;48747;50.250;18.848;2023-10-13T01:48:34;38.70;;;19.40;;
37355;SDS011;48747;50.250;18.848;2023-10-13T01:50:39;33.58;;;19.32;;
37355;SDS011;48747;50.250;18.848;2023-10-13T01:52:42;40.50;;;19.87;;
37355;SDS011;48747;50.250;18.848;2023-10-13T01:54:49;39.50;;;19.57;;
37355;SDS011;48747;50.250;18.848;2023-10-13T01:56:51;36.98;;;19.30;;
37355;SDS011;48747;50.250;18.848;2023-10-13T01:58:56;33.50;;;19.62;;
37355;SDS011;48747;50.250;18.848;2023-10-13T02:00:59;37.83;;;19.90;;
37355;SDS011;48747;50.250;18.848;2023-10-13T02:03:03;34.10;;;19.30;;
37355;SDS011;48747;50.250;18.848;2023-10-13T02:05:08;35.68;;;18.82;;
37355;SDS011;48747;50.250;18.848;2023-10-13T02:07:11;30.95;;;17.82;;
37355;SDS011;48747;50.250;18.848;2023-10-13T02:09:16;33.85;;;19.37;;
37355;SDS011;48747;50.250;18.848;2023-10-13T02:11:21;39.35;;;19.65;;
37355;SDS011;48747;50.250;18.848;2023-10-13T02:13:25;31.17;;;18.37;;
37355;SDS011;48747;50.250;18.848;2023-10-13T02:15:30;33.90;;;19.87;;
37355;SDS011;48747;50.250;18.848;2023-10-13T02:17:35;30.40;;;18.00;;
37355;SDS011;48747;50.250;18.848;2023-10-13T02:19:43;29.63;;;17.85;;
37355;SDS011;48747;50.250;18.848;2023-10-13T02:21:47;33.20;;;17.70;;
37355;SDS011;48747;50.250;18.848;2023-10-13T02:23:52;33.60;;;18.67;;
37355;SDS011;48747;50.250;18.848;2023-10-13T02:26:01;33.02;;;18.48;;
37355;SDS011;48747;50.250;18.848;2023-10-13T02:28:06;25.15;;;17.10;;
37355;SDS011;48747;50.250;18.848;2023-10-13T02:30:11;35.50;;;18.02;;
37355;SDS011;48747;50.250;18.848;2023-10-13T02:32:15;30.92;;;17.25;;
37355;SDS011;48747;50.250;18.848;2023-10-13T02:34:21;28.25;;;18.00;;
37355;SDS011;48747;50.250;18.848;2023-10-13T02:36:24;31.45;;;17.15;;
37355;SDS011;48747;50.250;18.848;2023-10-13T02:38:29;28.90;;;18.07;;
37355;SDS011;48747;50.250;18.848;2023-10-13T02:40:37;27.67;;;17.00;;
37355;SDS011;48747;50.250;18.848;2023-10-13T02:42:41;29.67;;;17.37;;
37355;SDS011;48747;50.250;18.848;2023-10-13T02:44:44;32.13;;;18.65;;
37355;SDS011;48747;50.250;18.848;2023-10-13T02:46:47;33.92;;;17.65;;
37355;SDS011;48747;50.250;18.848;2023-10-13T02:48:51;32.95;;;17.37;;
37355;SDS011;48747;50.250;18.848;2023-10-13T02:50:59;29.48;;;17.75;;
37355;SDS011;48747;50.250;18.848;2023-10-13T02:53:03;26.82;;;16.70;;
37355;SDS011;48747;50.250;18.848;2023-10-13T02:55:08;29.48;;;16.85;;
37355;SDS011;48747;50.250;18.848;2023-10-13T02:57:11;33.10;;;17.75;;
37355;SDS011;48747;50.250;18.848;2023-10-13T02:59:16;31.37;;;17.90;;
37355;SDS011;48747;50.250;18.848;2023-10-13T03:01:21;31.50;;;16.65;;
37355;SDS011;48747;50.250;18.848;2023-10-13T03:03:26;29.98;;;15.78;;
37355;SDS011;48747;50.250;18.848;2023-10-13T03:05:34;32.13;;;17.07;;
37355;SDS011;48747;50.250;18.848;2023-10-13T03:07:40;30.02;;;17.05;;
37355;SDS011;48747;50.250;18.848;2023-10-13T03:09:46;31.93;;;16.77;;
37355;SDS011;48747;50.250;18.848;2023-10-13T03:11:56;29.92;;;16.90;;
37355;SDS011;48747;50.250;18.848;2023-10-13T03:13:59;28.60;;;17.10;;
37355;SDS011;48747;50.250;18.848;2023-10-13T03:16:13;27.02;;;16.85;;
37355;SDS011;48747;50.250;18.848;2023-10-13T03:18:17;28.80;;;16.87;;
37355;SDS011;48747;50.250;18.848;2023-10-13T03:20:20;27.65;;;15.93;;
37355;SDS011;48747;50.250;18.848;2023-10-13T03:22:28;35.35;;;17.80;;
37355;SDS011;48747;50.250;18.848;2023-10-13T03:24:34;26.25;;;16.25;;
37355;SDS011;48747;50.250;18.848;2023-10-13T03:26:38;31.60;;;18.05;;
37355;SDS011;48747;50.250;18.848;2023-10-13T03:28:43;30.43;;;17.37;;
37355;SDS011;48747;50.250;18.848;2023-10-13T03:30:47;30.43;;;16.42;;
37355;SDS011;48747;50.250;18.848;2023-10-13T03:32:52;29.35;;;16.15;;
37355;SDS011;48747;50.250;18.848;2023-10-13T03:34:58;30.82;;;17.42;;
37355;SDS011;48747;50.250;18.848;2023-10-13T03:37:03;25.48;;;16.00;;
37355;SDS011;48747;50.250;18.848;2023-10-13T03:39:07;26.85;;;15.65;;
37355;SDS011;48747;50.250;18.848;2023-10-13T03:41:12;29.45;;;15.83;;
37355;SDS011;48747;50.250;18.848;2023-10-13T03:43:17;35.58;;;17.70;;
37355;SDS011;48747;50.250;18.848;2023-10-13T03:45:21;33.30;;;17.92;;
37355;SDS011;48747;50.250;18.848;2023-10-13T03:47:26;33.98;;;17.48;;
37355;SDS011;48747;50.250;18.848;2023-10-13T03:49:30;34.65;;;17.30;;
37355;SDS011;48747;50.250;18.848;2023-10-13T03:51:35;35.75;;;18.73;;
37355;SDS011;48747;50.250;18.848;2023-10-13T03:53:40;35.38;;;18.77;;
37355;SDS011;48747;50.250;18.848;2023-10-13T03:55:55;34.33;;;18.67;;
37355;SDS011;48747;50.250;18.848;2023-10-13T03:58:12;33.35;;;18.48;;
37355;SDS011;48747;50.250;18.848;2023-10-13T04:00:15;32.15;;;16.73;;
37355;SDS011;48747;50.250;18.848;2023-10-13T04:02:20;37.93;;;17.10;;
37355;SDS011;48747;50.250;18.848;2023-10-13T04:04:25;30.40;;;16.27;;
37355;SDS011;48747;50.250;18.848;2023-10-13T04:06:45;30.12;;;16.15;;
37355;SDS011;48747;50.250;18.848;2023-10-13T04:08:49;31.07;;;16.35;;
37355;SDS011;48747;50.250;18.848;2023-10-13T04:10:54;26.55;;;14.83;;
37355;SDS011;48747;50.250;18.848;2023-10-13T04:13:00;21.85;;;14.93;;
37355;SDS011;48747;50.250;18.848;2023-10-13T04:15:20;24.18;;;14.78;;
37355;SDS011;48747;50.250;18.848;2023-10-13T04:17:25;23.47;;;14.47;;
37355;SDS011;48747;50.250;18.848;2023-10-13T04:19:28;22.40;;;13.50;;
37355;SDS011;48747;50.250;18.848;2023-10-13T04:21:33;31.40;;;13.90;;
37355;SDS011;48747;50.250;18.848;2023-10-13T04:23:37;27.48;;;13.90;;
37355;SDS011;48747;50.250;18.848;2023-10-13T04:25:42;30.48;;;14.55;;
37355;SDS011;48747;50.250;18.848;2023-10-13T04:27:47;21.00;;;13.03;;
37355;SDS011;48747;50.250;18.848;2023-10-13T04:29:58;26.52;;;13.20;;
37355;SDS011;48747;50.250;18.848;2023-10-13T04:32:12;22.87;;;13.83;;
37355;SDS011;48747;50.250;18.848;2023-10-13T04:34:19;24.20;;;13.75;;
37355;SDS011;48747;50.250;18.848;2023-10-13T04:36:24;25.57;;;14.05;;
37355;SDS011;48747;50.250;18.848;2023-10-13T04:38:31;22.98;;;13.48;;
37355;SDS011;48747;50.250;18.848;2023-10-13T04:40:40;22.70;;;14.28;;
37355;SDS011;48747;50.250;18.848;2023-10-13T04:42:46;26.30;;;14.30;;
37355;SDS011;48747;50.250;18.848;2023-10-13T04:44:54;25.15;;;14.28;;
37355;SDS011;48747;50.250;18.848;2023-10-13T04:46:59;20.65;;;13.48;;
37355;SDS011;48747;50.250;18.848;2023-10-13T04:49:05;21.23;;;13.98;;
37355;SDS011;48747;50.250;18.848;2023-10-13T04:51:15;23.38;;;13.35;;
37355;SDS011;48747;50.250;18.848;2023-10-13T04:53:37;20.65;;;12.85;;
37355;SDS011;48747;50.250;18.848;2023-10-13T04:55:51;26.37;;;13.48;;
37355;SDS011;48747;50.250;18.848;2023-10-13T04:58:10;24.87;;;13.20;;
37355;SDS011;48747;50.250;18.848;2023-10-13T05:00:18;20.82;;;12.58;;
37355;SDS011;48747;50.250;18.848;2023-10-13T05:02:23;28.23;;;17.10;;
37355;SDS011;48747;50.250;18.848;2023-10-13T05:04:27;24.70;;;15.85;;
37355;SDS011;48747;50.250;18.848;2023-10-13T05:06:41;24.82;;;16.80;;
37355;SDS011;48747;50.250;18.848;2023-10-13T05:08:48;22.58;;;14.87;;
37355;SDS011;48747;50.250;18.848;2023-10-13T05:11:09;23.65;;;13.60;;
37355;SDS011;48747;50.250;18.848;2023-10-13T05:13:30;23.75;;;13.32;;
37355;SDS011;48747;50.250;18.848;2023-10-13T05:15:51;25.20;;;12.47;;
37355;SDS011;48747;50.250;18.848;2023-10-13T05:18:12;20.40;;;11.70;;
37355;SDS011;48747;50.250;18.848;2023-10-13T05:20:33;19.77;;;12.03;;
37355;SDS011;48747;50.250;18.848;2023-10-13T05:22:54;27.65;;;13.28;;
37355;SDS011;48747;50.250;18.848;2023-10-13T05:25:15;26.10;;;10.83;;
37355;SDS011;48747;50.250;18.848;2023-10-13T05:27:36;24.02;;;13.35;;
37355;SDS011;48747;50.250;18.848;2023-10-13T05:29:57;20.08;;;12.70;;
37355;SDS011;48747;50.250;18.848;2023-10-13T05:32:18;25.45;;;13.40;;
37355;SDS011;48747;50.250;18.848;2023-10-13T05:34:38;20.92;;;12.75;;
37355;SDS011;48747;50.250;18.848;2023-10-13T05:36:59;21.85;;;12.10;;
37355;SDS011;48747;50.250;18.848;2023-10-13T05:39:20;19.27;;;12.40;;
37355;SDS011;48747;50.250;18.848;2023-10-13T05:41:41;22.73;;;12.95;;
37355;SDS011;48747;50.250;18.848;2023-10-13T05:43:48;22.73;;;13.68;;
37355;SDS011;48747;50.250;18.848;2023-10-13T05:46:09;22.13;;;13.03;;
37355;SDS011;48747;50.250;18.848;2023-10-13T05:48:23;23.40;;;13.35;;
37355;SDS011;48747;50.250;18.848;2023-10-13T05:50:28;18.62;;;11.95;;
37355;SDS011;48747;50.250;18.848;2023-10-13T05:52:33;25.62;;;12.85;;
37355;SDS011;48747;50.250;18.848;2023-10-13T05:54:53;21.57;;;12.67;;
37355;SDS011;48747;50.250;18.848;2023-10-13T05:57:14;18.52;;;12.00;;
37355;SDS011;48747;50.250;18.848;2023-10-13T05:59:36;24.67;;;12.93;;
37355;SDS011;48747;50.250;18.848;2023-10-13T06:01:57;22.22;;;13.62;;
37355;SDS011;48747;50.250;18.848;2023-10-13T06:04:18;20.48;;;12.53;;
37355;SDS011;48747;50.250;18.848;2023-10-13T06:06:39;22.77;;;14.10;;
37355;SDS011;48747;50.250;18.848;2023-10-13T06:09:00;25.48;;;14.38;;
37355;SDS011;48747;50.250;18.848;2023-10-13T06:11:21;26.57;;;13.72;;
37355;SDS011;48747;50.250;18.848;2023-10-13T06:13:42;20.80;;;12.82;;
37355;SDS011;48747;50.250;18.848;2023-10-13T06:16:09;23.10;;;13.53;;
37355;SDS011;48747;50.250;18.848;2023-10-13T06:18:28;24.85;;;14.60;;
37355;SDS011;48747;50.250;18.848;2023-10-13T06:20:49;27.93;;;15.67;;
37355;SDS011;48747;50.250;18.848;2023-10-13T06:23:10;22.55;;;14.47;;
37355;SDS011;48747;50.250;18.848;2023-10-13T06:25:31;25.88;;;14.90;;
37355;SDS011;48747;50.250;18.848;2023-10-13T06:27:52;26.13;;;13.43;;
37355;SDS011;48747;50.250;18.848;2023-10-13T06:30:13;21.48;;;13.40;;
37355;SDS011;48747;50.250;18.848;2023-10-13T06:32:18;25.05;;;13.53;;
37355;SDS011;48747;50.250;18.848;2023-10-13T06:34:21;24.72;;;13.78;;
37355;SDS011;48747;50.250;18.848;2023-10-13T06:36:26;21.87;;;13.18;;
37355;SDS011;48747;50.250;18.848;2023-10-13T06:38:29;24.30;;;13.53;;
37355;SDS011;48747;50.250;18.848;2023-10-13T06:40:34;21.82;;;12.33;;
37355;SDS011;48747;50.250;18.848;2023-10-13T06:42:38;22.02;;;13.35;;
37355;SDS011;48747;50.250;18.848;2023-10-13T06:44:42;22.58;;;13.80;;
37355;SDS011;48747;50.250;18.848;2023-10-13T06:46:47;21.75;;;12.88;;
37355;SDS011;48747;50.250;18.848;2023-10-13T06:48:51;21.23;;;13.05;;
37355;SDS011;48747;50.250;18.848;2023-10-13T06:50:55;24.30;;;13.70;;
37355;SDS011;48747;50.250;18.848;2023-10-13T06:52:58;24.00;;;13.45;;
37355;SDS011;48747;50.250;18.848;2023-10-13T06:55:02;18.75;;;12.30;;
37355;SDS011;48747;50.250;18.848;2023-10-13T06:57:07;24.05;;;13.00;;
37355;SDS011;48747;50.250;18.848;2023-10-13T06:59:12;17.98;;;11.33;;
37355;SDS011;48747;50.250;18.848;2023-10-13T07:01:15;26.82;;;12.25;;
37355;SDS011;48747;50.250;18.848;2023-10-13T07:03:20;24.30;;;12.93;;
37355;SDS011;48747;50.250;18.848;2023-10-13T07:05:24;21.75;;;12.82;;
37355;SDS011;48747;50.250;18.848;2023-10-13T07:07:27;25.02;;;13.98;;
37355;SDS011;48747;50.250;18.848;2023-10-13T07:09:31;23.67;;;13.55;;
37355;SDS011;48747;50.250;18.848;2023-10-13T07:11:38;25.25;;;14.63;;
37355;SDS011;48747;50.250;18.848;2023-10-13T07:13:43;20.85;;;13.28;;
37355;SDS011;48747;50.250;18.848;2023-10-13T07:15:48;21.57;;;13.40;;
37355;SDS011;48747;50.250;18.848;2023-10-13T07:17:51;21.62;;;11.95;;
37355;SDS011;48747;50.250;18.848;2023-10-13T07:20:02;21.50;;;12.18;;
37355;SDS011;48747;50.250;18.848;2023-10-13T07:22:19;23.95;;;12.43;;
37355;SDS011;48747;50.250;18.848;2023-10-13T07:24:23;21.52;;;11.33;;
37355;SDS011;48747;50.250;18.848;2023-10-13T07:26:29;26.17;;;12.45;;
37355;SDS011;48747;50.250;18.848;2023-10-13T07:28:34;21.12;;;11.80;;
37355;SDS011;48747;50.250;18.848;2023-10-13T07:30:41;19.25;;;11.50;;
37355;SDS011;48747;50.250;18.848;2023-10-13T07:32:46;22.80;;;11.65;;
37355;SDS011;48747;50.250;18.848;2023-10-13T07:34:57;21.75;;;12.80;;
37355;SDS011;48747;50.250;18.848;2023-10-13T07:36:57;21.30;;;12.35;;
37355;SDS011;48747;50.250;18.848;2023-10-13T07:39:01;25.68;;;12.80;;
37355;SDS011;48747;50.250;18.848;2023-10-13T07:41:22;23.47;;;12.18;;
37355;SDS011;48747;50.250;18.848;2023-10-13T07:43:27;17.75;;;11.35;;
37355;SDS011;48747;50.250;18.848;2023-10-13T07:45:32;19.65;;;11.45;;
37355;SDS011;48747;50.250;18.848;2023-10-13T07:47:38;24.02;;;12.65;;
37355;SDS011;48747;50.250;18.848;2023-10-13T07:49:41;22.67;;;12.55;;
37355;SDS011;48747;50.250;18.848;2023-10-13T07:51:46;19.25;;;12.80;;
37355;SDS011;48747;50.250;18.848;2023-10-13T07:53:50;19.40;;;12.30;;
37355;SDS011;48747;50.250;18.848;2023-10-13T07:55:54;21.57;;;12.15;;
37355;SDS011;48747;50.250;18.848;2023-10-13T07:57:57;22.07;;;11.78;;
37355;SDS011;48747;50.250;18.848;2023-10-13T08:00:00;20.72;;;11.12;;
37355;SDS011;48747;50.250;18.848;2023-10-13T08:02:11;18.32;;;10.90;;
37355;SDS011;48747;50.250;18.848;2023-10-13T08:04:16;23.80;;;12.63;;
37355;SDS011;48747;50.250;18.848;2023-10-13T08:06:21;24.95;;;14.03;;
37355;SDS011;48747;50.250;18.848;2023-10-13T08:08:25;26.25;;;18.62;;
37355;SDS011;48747;50.250;18.848;2023-10-13T08:10:35;26.12;;;14.65;;
37355;SDS011;48747;50.250;18.848;2023-10-13T08:12:38;24.80;;;13.30;;
37355;SDS011;48747;50.250;18.848;2023-10-13T08:14:42;18.02;;;10.28;;
37355;SDS011;48747;50.250;18.848;2023-10-13T08:16:45;18.98;;;11.53;;
37355;SDS011;48747;50.250;18.848;2023-10-13T08:18:54;20.43;;;11.70;;
37355;SDS011;48747;50.250;18.848;2023-10-13T08:20:57;22.13;;;11.40;;
37355;SDS011;48747;50.250;18.848;2023-10-13T08:23:04;16.80;;;10.80;;
37355;SDS011;48747;50.250;18.848;2023-10-13T08:25:17;18.87;;;9.98;;
37355;SDS011;48747;50.250;18.848;2023-10-13T08:27:25;17.45;;;9.38;;
37355;SDS011;48747;50.250;18.848;2023-10-13T08:29:36;14.87;;;7.50;;
37355;SDS011;48747;50.250;18.848;2023-10-13T08:31:52;16.32;;;8.95;;
37355;SDS011;48747;50.250;18.848;2023-10-13T08:36:18;13.68;;;8.73;;
37355;SDS011;48747;50.250;18.848;2023-10-13T08:38:30;14.20;;;8.10;;
37355;SDS011;48747;50.250;18.848;2023-10-13T08:40:35;16.77;;;8.30;;
37355;SDS011;48747;50.250;18.848;2023-10-13T08:42:48;14.68;;;9.15;;
37355;SDS011;48747;50.250;18.848;2023-10-13T08:45:08;12.85;;;8.10;;
37355;SDS011;48747;50.250;18.848;2023-10-13T08:47:26;25.20;;;9.03;;
37355;SDS011;48747;50.250;18.848;2023-10-13T08:49:31;18.10;;;9.10;;
37355;SDS011;48747;50.250;18.848;2023-10-13T08:51:36;18.07;;;8.35;;
37355;SDS011;48747;50.250;18.848;2023-10-13T08:53:54;14.30;;;7.75;;
37355;SDS011;48747;50.250;18.848;2023-10-13T08:56:06;16.55;;;8.08;;
37355;SDS011;48747;50.250;18.848;2023-10-13T08:58:17;12.53;;;8.18;;
37355;SDS011;48747;50.250;18.848;2023-10-13T09:00:22;17.60;;;8.60;;
37355;SDS011;48747;50.250;18.848;2023-10-13T09:02:32;17.30;;;8.40;;
37355;SDS011;48747;50.250;18.848;2023-10-13T09:04:55;15.83;;;7.75;;
37355;SDS011;48747;50.250;18.848;2023-10-13T09:07:01;13.30;;;7.70;;
37355;SDS011;48747;50.250;18.848;2023-10-13T09:09:09;12.75;;;7.78;;
37355;SDS011;48747;50.250;18.848;2023-10-13T09:11:14;14.07;;;7.58;;
37355;SDS011;48747;50.250;18.848;2023-10-13T09:13:18;17.60;;;7.70;;
37355;SDS011;48747;50.250;18.848;2023-10-13T09:15:27;16.85;;;7.15;;
37355;SDS011;48747;50.250;18.848;2023-10-13T09:17:29;11.33;;;6.42;;
37355;SDS011;48747;50.250;18.848;2023-10-13T09:19:43;15.28;;;7.15;;
37355;SDS011;48747;50.250;18.848;2023-10-13T09:21:59;15.85;;;6.80;;
37355;SDS011;48747;50.250;18.848;2023-10-13T09:24:02;13.18;;;7.28;;
37355;SDS011;48747;50.250;18.848;2023-10-13T09:26:32;12.82;;;7.12;;
37355;SDS011;48747;50.250;18.848;2023-10-13T09:28:33;12.07;;;6.72;;
37355;SDS011;48747;50.250;18.848;2023-10-13T09:33:03;14.07;;;7.65;;
37355;SDS011;48747;50.250;18.848;2023-10-13T09:35:08;14.13;;;6.67;;
37355;SDS011;48747;50.250;18.848;2023-10-13T09:37:14;11.60;;;7.00;;
37355;SDS011;48747;50.250;18.848;2023-10-13T09:39:18;14.35;;;7.70;;
37355;SDS011;48747;50.250;18.848;2023-10-13T09:41:33;14.65;;;7.20;;
37355;SDS011;48747;50.250;18.848;2023-10-13T09:43:39;15.30;;;6.92;;
37355;SDS011;48747;50.250;18.848;2023-10-13T09:45:45;12.82;;;7.03;;
37355;SDS011;48747;50.250;18.848;2023-10-13T09:48:03;15.15;;;6.70;;
37355;SDS011;48747;50.250;18.848;2023-10-13T09:50:12;11.18;;;6.03;;
37355;SDS011;48747;50.250;18.848;2023-10-13T09:52:18;13.32;;;5.85;;
37355;SDS011;48747;50.250;18.848;2023-10-13T09:54:24;12.80;;;6.20;;
37355;SDS011;48747;50.250;18.848;2023-10-13T09:56:35;10.20;;;5.72;;
37355;SDS011;48747;50.250;18.848;2023-10-13T09:58:42;11.45;;;5.72;;
37355;SDS011;48747;50.250;18.848;2023-10-13T10:00:52;11.03;;;5.78;;
37355;SDS011;48747;50.250;18.848;2023-10-13T10:02:59;12.58;;;5.50;;
37355;SDS011;48747;50.250;18.848;2023-10-13T10:05:06;9.35;;;5.30;;
37355;SDS011;48747;50.250;18.848;2023-10-13T10:07:26;13.85;;;6.28;;
37355;SDS011;48747;50.250;18.848;2023-10-13T10:09:33;12.35;;;6.12;;
37355;SDS011;48747;50.250;18.848;2023-10-13T10:14:10;14.05;;;6.03;;
37355;SDS011;48747;50.250;18.848;2023-10-13T10:16:14;10.35;;;6.05;;
37355;SDS011;48747;50.250;18.848;2023-10-13T10:18:21;15.13;;;6.05;;
37355;SDS011;48747;50.250;18.848;2023-10-13T10:20:29;11.03;;;4.92;;
37355;SDS011;48747;50.250;18.848;2023-10-13T10:22:56;7.78;;;5.20;;
37355;SDS011;48747;50.250;18.848;2023-10-13T10:25:03;11.45;;;5.15;;
37355;SDS011;48747;50.250;18.848;2023-10-13T10:27:10;11.35;;;5.47;;
37355;SDS011;48747;50.250;18.848;2023-10-13T10:29:15;9.93;;;5.28;;
37355;SDS011;48747;50.250;18.848;2023-10-13T10:31:18;11.00;;;5.40;;
37355;SDS011;48747;50.250;18.848;2023-10-13T10:33:29;13.38;;;5.37;;
37355;SDS011;48747;50.250;18.848;2023-10-13T10:35:30;10.63;;;5.65;;
37355;SDS011;48747;50.250;18.848;2023-10-13T10:37:34;9.53;;;5.30;;
37355;SDS011;48747;50.250;18.848;2023-10-13T10:39:41;11.50;;;5.30;;
37355;SDS011;48747;50.250;18.848;2023-10-13T10:41:47;8.98;;;5.60;;
37355;SDS011;48747;50.250;18.848;2023-10-13T10:43:53;14.20;;;5.47;;
37355;SDS011;48747;50.250;18.848;2023-10-13T10:45:56;12.47;;;5.60;;
37355;SDS011;48747;50.250;18.848;2023-10-13T10:48:01;12.45;;;5.22;;
37355;SDS011;48747;50.250;18.848;2023-10-13T10:50:05;9.58;;;5.25;;
37355;SDS011;48747;50.250;18.848;2023-10-13T10:52:10;12.43;;;5.25;;
37355;SDS011;48747;50.250;18.848;2023-10-13T10:54:18;11.05;;;5.05;;
37355;SDS011;48747;50.250;18.848;2023-10-13T10:56:22;12.73;;;5.97;;
37355;SDS011;48747;50.250;18.848;2023-10-13T10:58:38;10.43;;;5.55;;
37355;SDS011;48747;50.250;18.848;2023-10-13T11:00:43;10.72;;;5.50;;
37355;SDS011;48747;50.250;18.848;2023-10-13T11:02:53;13.58;;;5.67;;
37355;SDS011;48747;50.250;18.848;2023-10-13T11:04:59;10.88;;;5.55;;
37355;SDS011;48747;50.250;18.848;2023-10-13T11:07:03;11.53;;;6.15;;
37355;SDS011;48747;50.250;18.848;2023-10-13T11:09:08;10.45;;;5.53;;
37355;SDS011;48747;50.250;18.848;2023-10-13T11:11:34;10.10;;;5.62;;
37355;SDS011;48747;50.250;18.848;2023-10-13T11:13:42;9.48;;;5.33;;
37355;SDS011;48747;50.250;18.848;2023-10-13T11:15:45;11.88;;;5.67;;
37355;SDS011;48747;50.250;18.848;2023-10-13T11:17:48;10.45;;;5.17;;
37355;SDS011;48747;50.250;18.848;2023-10-13T11:20:07;9.58;;;5.28;;
37355;SDS011;48747;50.250;18.848;2023-10-13T11:24:17;10.28;;;5.17;;
37355;SDS011;48747;50.250;18.848;2023-10-13T11:26:21;9.05;;;5.20;;
37355;SDS011;48747;50.250;18.848;2023-10-13T11:28:35;11.48;;;4.95;;
37355;SDS011;48747;50.250;18.848;2023-10-13T11:30:39;8.48;;;5.08;;
37355;SDS011;48747;50.250;18.848;2023-10-13T11:32:42;11.33;;;5.53;;
37355;SDS011;48747;50.250;18.848;2023-10-13T11:34:46;9.73;;;4.97;;
37355;SDS011;48747;50.250;18.848;2023-10-13T11:36:51;8.30;;;5.15;;
37355;SDS011;48747;50.250;18.848;2023-10-13T11:38:54;11.80;;;5.80;;
37355;SDS011;48747;50.250;18.848;2023-10-13T11:40:59;9.08;;;5.22;;
37355;SDS011;48747;50.250;18.848;2023-10-13T11:43:13;11.83;;;5.92;;
37355;SDS011;48747;50.250;18.848;2023-10-13T11:45:16;10.98;;;5.42;;
37355;SDS011;48747;50.250;18.848;2023-10-13T11:47:21;12.25;;;5.37;;
37355;SDS011;48747;50.250;18.848;2023-10-13T11:49:37;11.38;;;6.10;;
37355;SDS011;48747;50.250;18.848;2023-10-13T11:51:47;11.12;;;5.03;;
37355;SDS011;48747;50.250;18.848;2023-10-13T11:53:46;11.25;;;5.60;;
37355;SDS011;48747;50.250;18.848;2023-10-13T11:55:51;10.90;;;5.33;;
37355;SDS011;48747;50.250;18.848;2023-10-13T11:57:54;12.40;;;5.17;;
37355;SDS011;48747;50.250;18.848;2023-10-13T11:59:58;9.48;;;4.70;;
37355;SDS011;48747;50.250;18.848;2023-10-13T12:02:03;13.00;;;5.20;;
37355;SDS011;48747;50.250;18.848;2023-10-13T12:04:13;11.45;;;5.30;;
37355;SDS011;48747;50.250;18.848;2023-10-13T12:06:34;10.43;;;5.15;;
37355;SDS011;48747;50.250;18.848;2023-10-13T12:08:40;9.05;;;5.25;;
37355;SDS011;48747;50.250;18.848;2023-10-13T12:10:44;9.65;;;5.33;;
37355;SDS011;48747;50.250;18.848;2023-10-13T12:12:54;8.68;;;5.08;;
37355;SDS011;48747;50.250;18.848;2023-10-13T12:14:59;10.30;;;5.70;;
37355;SDS011;48747;50.250;18.848;2023-10-13T12:17:04;10.80;;;6.50;;
37355;SDS011;48747;50.250;18.848;2023-10-13T12:19:08;12.98;;;5.50;;
37355;SDS011;48747;50.250;18.848;2023-10-13T12:21:12;13.15;;;5.60;;
37355;SDS011;48747;50.250;18.848;2023-10-13T12:23:17;8.55;;;4.75;;
37355;SDS011;48747;50.250;18.848;2023-10-13T12:25:21;13.75;;;5.10;;
37355;SDS011;48747;50.250;18.848;2023-10-13T12:27:29;12.18;;;4.83;;
37355;SDS011;48747;50.250;18.848;2023-10-13T12:29:40;11.20;;;5.80;;
37355;SDS011;48747;50.250;18.848;2023-10-13T12:31:44;8.85;;;4.85;;